x

Tanner Bank - 121nm West Of San Diego, Ca (46047) Wave Buoy

3:50am - Sat 10th Dec 2016 All times are PST. -8 hours from GMT.

  • Sig Wave height 5.2ft
  • Swell Direction
  • Peak Period 15s
  • Average Period 5s
  • Wind
    22mph, 27mph gusts
  • Sea Temp 61°f
  • 空気 Temp 61°f
  • Sea Pressure 1021.6mb
  • Tanner Bank - 121nm West Of San Diego, Ca
  • Tanner Bank - 121nm West Of San Diego, Ca

More Historic Weather Station data

Upgrade to MSW Pro to gain access to the past 30 days of data for over 8000 Wavebouys and Weather Stations around the globe.

Join Pro

Comparision Forecast

View Surf forecast
   
Sat 12/10 3:50am 5ft 15s 5s 22 27 mph 1021.6mb 61f 61f
2:50am 5ft 15s 5s 22 25 mph 1021.9mb 61f 61f
1:50am 5ft 16s 5s 20 25 mph 1022mb 61f 61f
12:50am 5ft 15s 5s 20 22 mph 1022.1mb 61f 60f
Fri 12/09 11:50pm 5ft 15s 5s 18 20 mph 1022.6mb 61f 60f
10:50pm 5ft 15s 5s 20 25 mph 1022.8mb 61f 60f
9:50pm 5ft 16s 5s 22 27 mph 1022.9mb 61f 60f
8:50pm 4.5ft 16s 5s 18 22 mph 1022.7mb 62f 60f
7:50pm 4.5ft 16s 6s 20 25 mph 1022.1mb 62f 60f
6:50pm 3.5ft 16s 6s 16 20 mph 1022.1mb 62f 61f
5:50pm 3.5ft 15s 6s 13 18 mph 1021.9mb 62f 61f
4:50pm 3.5ft 16s 6s 13 16 mph 1022mb 62f 61f
3:50pm 3.5ft 17s 7s 13 18 mph 1022.2mb 62f 61f
2:50pm 3.5ft 16s 6s 13 16 mph 1022.6mb 62f 60f
1:50pm 3.5ft 15s 6s 13 16 mph 1023.2mb 63f 60f
12:50pm 3.5ft 16s 6s 13 16 mph 1023.8mb 63f 60f
11:50am 3.5ft 16s 7s 13 16 mph 1024.8mb 63f 60f
10:50am 3.5ft 16s 7s 11 13 mph 1025.5mb 62f 62f
9:50am 3.5ft 16s 7s 11 13 mph 1025.8mb 62f 61f
8:50am 3.5ft 16s 7s 11 13 mph 1025.5mb 62f 61f
7:50am 3.5ft 17s 7s 11 13 mph 1025mb 62f 61f
6:50am 3.5ft 17s 7s 11
mph
1024.7mb 62f 60f
5:50am 3ft 17s 7s 11 13 mph 1024.6mb 62f 61f
4:50am 3.5ft 15s 7s 9 11 mph 1024.4mb 62f 60f
3:50am 3ft 16s 7s 11 13 mph 1024.4mb 62f 60f
2:50am 3ft 16s 7s 11 13 mph 1024.6mb 62f 61f
1:50am 2.5ft 15s 6s 9 11 mph 1025mb 62f 61f
12:50am 2.5ft 15s 7s 11 13 mph 1025.1mb 61f 61f
Thu 12/08 11:50pm 2.5ft 15s 8s 9 11 mph 1025.1mb 62f 61f
10:50pm 2.5ft 15s 6s 9 11 mph 1025.3mb 62f 61f
9:50pm 2.5ft 15s 6s 11 13 mph 1025.5mb 62f 61f
8:50pm 2.5ft 15s 6s 13 16 mph 1025.2mb 62f 61f
7:50pm 2.5ft 15s 7s 13 16 mph 1024.9mb 62f 61f
6:50pm 2.5ft 15s 7s 11 13 mph 1024.6mb 62f 60f
5:50pm 2.5ft 11s 7s 11 13 mph 1024.2mb 62f 60f
4:50pm 2.5ft 11s 6s 9
mph
1024mb 62f 60f
3:50pm 3ft 11s 6s 11 13 mph 1023.9mb 62f 60f
2:50pm 2.5ft 12s 6s 11 13 mph 1023.7mb 62f 59f
1:50pm 3ft 11s 7s 13 16 mph 1023.5mb 62f 59f
12:50pm 3.5ft 12s 7s 11 13 mph 1024.2mb 62f 59f
11:50am 3ft 11s 7s 11 13 mph 1024.7mb 62f 59f
10:50am 3.5ft 12s 7s 9
mph
1025.4mb 61f 58f
9:50am 4ft 13s 7s 9 11 mph 1025.7mb 61f 58f
8:50am 3.5ft 13s 6s 9 11 mph 1024.8mb 61f 58f
7:50am 4ft 11s 7s 11 13 mph 1024mb 61f 58f
6:50am 4.5ft 11s 6s 11 13 mph 1023.2mb 61f 58f
5:50am 4.5ft 13s 7s 13 16 mph 1022.6mb 61f 58f
4:50am 4.5ft 11s 6s 13 16 mph 1022.1mb 61f 58f
3:50am 5.5ft 13s 7s 13 18 mph 1021.8mb 61f 58f
2:50am 5.5ft 12s 7s 16 18 mph 1021.8mb 61f 58f
1:50am 6ft 14s 7s 16 18 mph 1021.8mb 61f 58f
12:50am 5.5ft 14s 7s 18 20 mph 1021.5mb 61f 58f
Wed 12/07 11:50pm 6ft 13s 7s 13 18 mph 1021.7mb 61f 58f
9:50pm 6.5ft 14s 7s 13 18 mph 1021.8mb 61f 58f
8:50pm 6ft 13s 6s 16 20 mph 1021.5mb 61f 58f
7:50pm 6.5ft 13s 7s 13 16 mph 1021mb 61f 57f
6:50pm 7ft 13s 7s 16 18 mph 1020.8mb 61f 58f
5:50pm 6.5ft 14s 6s 13 18 mph 1020.2mb 61f 57f
4:50pm 7ft 12s 6s 18 20 mph 1020.1mb 61f 57f
3:50pm 8ft 14s 7s 16 22 mph 1019.6mb 61f 57f
1:50pm 7.5ft 13s 6s 20 25 mph 1019.2mb 61f 57f
12:50pm 8ft 14s 7s 20 25 mph 1019.7mb 61f 57f
11:50am 8ft 14s 6s 22 27 mph 1019.9mb 61f 57f
10:50am 8ft 13s 6s 18 22 mph 1020.4mb 61f 57f
9:50am 9ft 12s 7s 20 25 mph 1020.6mb 61f 57f
8:50am 9ft 8s 7s 20 25 mph 1019.6mb 61f 57f
7:50am 10ft 13s 7s 20 22 mph 1018.8mb 61f 57f
6:50am 9ft 13s 7s 20 25 mph 1018.3mb 61f 57f
5:50am 10ft 15s 7s 22 27 mph 1018mb 61f 57f
4:50am 10ft 15s 7s 22 27 mph 1017.6mb 61f 57f
3:50am 10ft 7s 7s 27 31 mph 1017.5mb 61f 57f
2:50am 9.5ft 16s 7s 22 29 mph 1017.4mb 61f 57f
1:50am 10ft 13s 7s 25 29 mph 1017.4mb 61f 57f
12:50am 9ft 8s 6s 25 29 mph 1017.2mb 61f 57f
Tue 12/06 11:50pm 9ft 8s 6s 25 29 mph 1017.4mb 61f 57f
10:50pm 9.5ft 14s 7s 25 27 mph 1017.4mb 61f 58f
9:50pm 9ft 13s 7s 22 29 mph 1017mb 61f 58f
8:50pm 8.5ft 13s 7s 22 27 mph 1017mb 61f 58f
7:50pm 9ft 9s 7s 20 25 mph 1016.5mb 61f 58f
6:50pm 8.5ft 14s 7s 22 25 mph 1016.6mb 61f 58f
5:50pm 8ft 14s 7s 20 25 mph 1016.3mb 62f 58f
4:50pm 8.5ft 13s 7s 18 25 mph 1016.1mb 62f 57f
3:50pm 9ft 12s 7s 18 20 mph 1015.9mb 62f 57f
2:50pm 9.5ft 15s 7s 20 22 mph 1015.7mb 62f 57f
1:50pm 10ft 13s 8s 18 22 mph 1015.7mb 62f 57f